createdAt,value
2018-08-11T00:01:03.165Z,15.86
2018-08-11T00:03:32.547Z,15.86
2018-08-11T00:06:01.911Z,15.90
2018-08-11T00:08:31.775Z,15.90
2018-08-11T00:11:01.207Z,15.95
2018-08-11T00:13:30.807Z,15.92
2018-08-11T00:16:00.174Z,15.77
2018-08-11T00:18:29.693Z,15.83
2018-08-11T00:20:59.513Z,15.78
2018-08-11T00:23:29.060Z,15.77
2018-08-11T00:25:58.886Z,15.75
2018-08-11T00:28:28.236Z,15.63
2018-08-11T00:30:57.534Z,15.64
2018-08-11T00:33:26.933Z,15.66
2018-08-11T00:35:56.422Z,15.66
2018-08-11T00:38:26.152Z,15.67
2018-08-11T00:40:55.764Z,15.61
2018-08-11T00:43:25.443Z,15.59
2018-08-11T00:45:54.577Z,15.53
2018-08-11T00:48:23.983Z,15.51
2018-08-11T00:50:53.559Z,15.63
2018-08-11T00:53:22.834Z,15.64
2018-08-11T00:55:52.190Z,15.48
2018-08-11T00:58:21.851Z,15.36
2018-08-11T01:00:51.474Z,15.39
2018-08-11T01:03:20.977Z,15.43
2018-08-11T01:05:50.818Z,15.48
2018-08-11T01:08:19.888Z,15.42
2018-08-11T01:10:48.978Z,15.46
2018-08-11T01:13:18.362Z,15.45
2018-08-11T01:15:47.402Z,15.27
2018-08-11T01:18:16.618Z,15.32
2018-08-11T01:20:46.912Z,15.45
2018-08-11T01:23:16.585Z,15.51
2018-08-11T01:25:46.576Z,15.48
2018-08-11T01:28:16.051Z,15.56
2018-08-11T01:30:45.849Z,15.54
2018-08-11T01:33:15.928Z,15.57
2018-08-11T01:35:45.713Z,15.46
2018-08-11T01:38:15.045Z,15.31
2018-08-11T01:40:44.495Z,15.39
2018-08-11T01:43:15.293Z,15.36
2018-08-11T01:45:45.350Z,15.40
2018-08-11T01:48:14.694Z,15.44
2018-08-11T01:50:44.145Z,15.48
2018-08-11T01:53:13.654Z,15.48
2018-08-11T01:55:43.225Z,15.44
2018-08-11T01:58:12.530Z,15.53
2018-08-11T02:00:41.909Z,15.47
2018-08-11T02:03:11.546Z,15.48
2018-08-11T02:05:41.154Z,15.52
2018-08-11T02:08:10.665Z,15.47
2018-08-11T02:10:40.883Z,15.50
2018-08-11T02:13:11.056Z,15.50
2018-08-11T02:15:40.435Z,15.44
2018-08-11T02:18:10.463Z,15.43
2018-08-11T02:20:40.169Z,15.45
2018-08-11T02:23:09.458Z,15.42
2018-08-11T02:25:39.465Z,15.33
2018-08-11T02:28:09.484Z,15.36
2018-08-11T02:30:38.775Z,15.33
2018-08-11T02:33:08.187Z,15.41
2018-08-11T02:35:37.546Z,15.40
2018-08-11T02:38:07.194Z,15.39
2018-08-11T02:40:37.325Z,15.33
2018-08-11T02:43:06.525Z,15.21
2018-08-11T02:45:37.358Z,15.22
2018-08-11T02:48:07.352Z,15.38
2018-08-11T02:50:36.976Z,15.39
2018-08-11T02:53:06.325Z,15.36
2018-08-11T02:55:35.648Z,15.35
2018-08-11T02:58:05.078Z,15.41
2018-08-11T03:00:35.308Z,15.41
2018-08-11T03:03:05.538Z,15.41
2018-08-11T03:05:34.561Z,15.42
2018-08-11T03:08:03.735Z,15.44
2018-08-11T03:10:33.941Z,15.37
2018-08-11T03:13:03.788Z,15.40
2018-08-11T03:15:33.799Z,15.38
2018-08-11T03:18:03.685Z,15.34
2018-08-11T03:20:33.014Z,15.33
2018-08-11T03:23:02.250Z,15.30
2018-08-11T03:25:31.697Z,15.40
2018-08-11T03:28:01.090Z,15.41
2018-08-11T03:30:30.372Z,15.40
2018-08-11T03:33:00.160Z,15.44
2018-08-11T03:35:29.584Z,15.41
2018-08-11T03:37:58.961Z,15.48
2018-08-11T03:40:28.384Z,15.45
2018-08-11T03:42:58.658Z,15.45
2018-08-11T03:45:28.217Z,15.46
2018-08-11T03:47:57.574Z,15.46
2018-08-11T03:50:27.033Z,15.42
2018-08-11T03:52:56.417Z,15.45
2018-08-11T03:55:25.757Z,15.49
2018-08-11T03:57:55.266Z,15.40
2018-08-11T04:00:24.589Z,15.37
2018-08-11T04:02:54.962Z,15.34
2018-08-11T04:05:24.638Z,15.39
2018-08-11T04:07:54.285Z,15.43
2018-08-11T04:10:23.645Z,15.46
2018-08-11T04:12:52.955Z,15.50
2018-08-11T04:15:22.566Z,15.49
2018-08-11T04:17:53.956Z,15.52
2018-08-11T04:20:23.383Z,15.50
2018-08-11T04:22:53.574Z,15.48
2018-08-11T04:25:23.075Z,15.47
2018-08-11T04:27:52.607Z,15.49
2018-08-11T04:30:22.808Z,15.48
2018-08-11T04:32:53.368Z,15.40
2018-08-11T04:35:23.760Z,15.41
2018-08-11T04:37:53.249Z,15.43
2018-08-11T04:40:22.640Z,15.47
2018-08-11T04:42:52.996Z,15.46
2018-08-11T04:45:22.502Z,15.47
2018-08-11T04:47:52.074Z,15.53
2018-08-11T04:50:21.469Z,15.55
2018-08-11T04:52:50.803Z,15.53
2018-08-11T04:55:20.045Z,15.55
2018-08-11T04:57:49.475Z,15.41
2018-08-11T05:00:18.928Z,15.37
2018-08-11T05:02:48.444Z,15.49
2018-08-11T05:05:19.745Z,15.54
2018-08-11T05:07:49.105Z,15.49
2018-08-11T05:10:18.644Z,15.50
2018-08-11T05:12:50.370Z,15.42
2018-08-11T05:15:19.952Z,15.51
2018-08-11T05:17:49.146Z,15.58
2018-08-11T05:20:19.870Z,15.56
2018-08-11T05:22:49.196Z,15.70
2018-08-11T05:25:18.666Z,15.73
2018-08-11T05:27:51.027Z,15.82
2018-08-11T05:30:20.495Z,15.88
2018-08-11T05:32:50.491Z,15.94
2018-08-11T05:35:20.739Z,15.95
2018-08-11T05:37:50.242Z,15.96
2018-08-11T05:40:21.906Z,15.92
2018-08-11T05:42:51.191Z,15.90
2018-08-11T05:45:21.519Z,15.92
2018-08-11T05:47:50.861Z,15.93
2018-08-11T05:50:20.547Z,16.05
2018-08-11T05:52:51.481Z,16.12
2018-08-11T05:55:21.153Z,16.07
2018-08-11T05:57:54.165Z,16.20
2018-08-11T06:00:23.689Z,16.18
2018-08-11T06:02:53.088Z,16.39
2018-08-11T06:05:22.688Z,16.69
2018-08-11T06:07:52.295Z,16.79
2018-08-11T06:10:21.796Z,16.62
2018-08-11T06:12:53.060Z,16.75
2018-08-11T06:15:22.519Z,16.60
2018-08-11T06:17:52.034Z,16.81
2018-08-11T06:20:21.472Z,16.90
2018-08-11T06:22:54.195Z,17.01
2018-08-11T06:25:24.962Z,16.73
2018-08-11T06:28:01.456Z,16.59
2018-08-11T06:30:31.014Z,16.51
2018-08-11T06:33:00.697Z,16.73
2018-08-11T06:35:30.605Z,16.66
2018-08-11T06:38:00.050Z,16.69
2018-08-11T06:40:29.740Z,16.68
2018-08-11T06:42:59.166Z,16.69
2018-08-11T06:45:29.567Z,16.78
2018-08-11T06:47:59.138Z,16.82
2018-08-11T06:50:29.802Z,16.81
2018-08-11T06:53:00.519Z,16.97
2018-08-11T06:55:30.046Z,17.03
2018-08-11T06:58:00.532Z,17.00
2018-08-11T07:00:30.202Z,17.09
2018-08-11T07:02:59.646Z,17.12
2018-08-11T07:05:29.167Z,17.13
2018-08-11T07:08:00.274Z,17.43
2018-08-11T07:10:29.976Z,17.50
2018-08-11T07:13:00.737Z,17.56
2018-08-11T07:15:31.211Z,17.38
2018-08-11T07:18:00.430Z,17.61
2018-08-11T07:20:31.453Z,17.61
2018-08-11T07:23:00.776Z,17.57
2018-08-11T07:25:31.059Z,17.49
2018-08-11T07:28:02.360Z,17.45
2018-08-11T07:30:31.775Z,17.71
2018-08-11T07:33:01.938Z,17.82
2018-08-11T07:35:32.109Z,17.90
2018-08-11T07:38:02.951Z,17.77
2018-08-11T07:40:32.468Z,18.02
2018-08-11T07:43:04.029Z,18.17
2018-08-11T07:45:33.722Z,18.18
2018-08-11T07:48:03.812Z,18.78
2018-08-11T07:50:33.094Z,18.93
2018-08-11T07:53:02.436Z,18.75
2018-08-11T07:55:31.696Z,18.48
2018-08-11T07:58:02.093Z,18.73
2018-08-11T08:00:33.142Z,18.65
2018-08-11T08:03:04.775Z,18.59
2018-08-11T08:05:36.521Z,18.50
2018-08-11T08:08:06.031Z,18.73
2018-08-11T08:10:35.522Z,18.96
2018-08-11T08:13:05.012Z,18.98
2018-08-11T08:15:34.586Z,18.94
2018-08-11T08:18:04.850Z,19.01
2018-08-11T08:20:34.399Z,19.23
2018-08-11T08:23:04.408Z,19.46
2018-08-11T08:25:35.230Z,19.83
2018-08-11T08:28:05.130Z,20.27
2018-08-11T08:30:36.295Z,20.42
2018-08-11T08:33:06.497Z,19.63
2018-08-11T08:35:37.214Z,19.97
2018-08-11T08:38:07.910Z,19.69
2018-08-11T08:40:37.943Z,20.05
2018-08-11T08:43:08.023Z,20.39
2018-08-11T08:45:38.712Z,20.17
2018-08-11T08:48:10.498Z,19.66
2018-08-11T08:50:39.890Z,19.87
2018-08-11T08:53:09.679Z,19.80
2018-08-11T08:55:40.217Z,19.68
2018-08-11T08:58:09.574Z,19.45
2018-08-11T09:00:39.671Z,19.66
2018-08-11T09:03:09.124Z,19.80
2018-08-11T09:05:38.444Z,20.04
2018-08-11T09:08:09.639Z,19.84
2018-08-11T09:10:40.350Z,19.92
2018-08-11T09:13:11.105Z,20.24
2018-08-11T09:15:41.736Z,20.19
2018-08-11T09:18:11.500Z,20.22
2018-08-11T09:20:41.832Z,21.22
2018-08-11T09:23:11.167Z,22.13
2018-08-11T09:25:40.853Z,22.38
2018-08-11T09:28:11.242Z,22.37
2018-08-11T09:30:41.214Z,21.75
2018-08-11T09:33:10.772Z,21.32
2018-08-11T09:35:41.332Z,21.65
2018-08-11T09:38:12.244Z,21.80
2018-08-11T09:40:42.069Z,21.34
2018-08-11T09:43:12.066Z,21.43
2018-08-11T09:45:41.965Z,20.58
2018-08-11T09:48:12.558Z,21.31
2018-08-11T09:50:42.424Z,21.77
2018-08-11T09:53:11.789Z,22.19
2018-08-11T09:55:41.471Z,21.87
2018-08-11T09:58:10.943Z,21.87
2018-08-11T10:00:45.654Z,21.68
2018-08-11T10:03:16.675Z,22.23
2018-08-11T10:05:46.368Z,22.16
2018-08-11T10:08:16.509Z,22.50
2018-08-11T10:10:46.398Z,22.64
2018-08-11T10:13:15.901Z,23.02
2018-08-11T10:15:46.033Z,23.02
2018-08-11T10:18:17.000Z,23.02
2018-08-11T10:20:46.593Z,23.24
2018-08-11T10:23:16.219Z,23.12
2018-08-11T10:25:46.076Z,22.53
2018-08-11T10:28:16.674Z,22.74
2018-08-11T10:30:46.651Z,22.91
2018-08-11T10:33:17.226Z,22.88
2018-08-11T10:35:47.302Z,23.20
2018-08-11T10:38:17.719Z,23.17
2018-08-11T10:40:47.318Z,22.93
2018-08-11T10:43:16.819Z,22.89
2018-08-11T10:45:46.525Z,22.99
2018-08-11T10:48:16.155Z,23.33
2018-08-11T10:50:45.821Z,23.73
2018-08-11T10:53:15.857Z,23.88
2018-08-11T10:55:45.671Z,24.05
2018-08-11T10:58:15.830Z,23.88
2018-08-11T11:00:47.687Z,24.54
2018-08-11T11:03:18.560Z,25.22
2018-08-11T11:05:49.478Z,25.09
2018-08-11T11:08:19.100Z,24.64
2018-08-11T11:10:48.512Z,24.80
2018-08-11T11:13:17.997Z,24.68
2018-08-11T11:15:47.444Z,24.41
2018-08-11T11:18:17.456Z,24.23
2018-08-11T11:20:47.299Z,24.13
2018-08-11T11:23:16.660Z,24.18
2018-08-11T11:25:47.919Z,24.11
2018-08-11T11:28:17.656Z,23.88
2018-08-11T11:30:46.967Z,23.74
2018-08-11T11:33:16.466Z,23.68
2018-08-11T11:35:46.790Z,23.93
2018-08-11T11:38:16.330Z,24.22
2018-08-11T11:40:45.847Z,24.34
2018-08-11T11:43:15.120Z,24.17
2018-08-11T11:45:44.579Z,24.16
2018-08-11T11:48:13.965Z,24.12
2018-08-11T11:50:43.700Z,24.21
2018-08-11T11:53:13.041Z,24.28
2018-08-11T11:55:43.190Z,24.46
2018-08-11T11:58:12.908Z,24.88
2018-08-11T12:00:42.496Z,24.78
2018-08-11T12:03:11.873Z,25.19
2018-08-11T12:05:42.283Z,25.49
2018-08-11T12:08:11.639Z,23.85
2018-08-11T12:10:42.429Z,24.02
2018-08-11T12:13:11.850Z,24.06
2018-08-11T12:15:41.265Z,23.90
2018-08-11T12:18:10.708Z,24.15
2018-08-11T12:20:40.209Z,24.07
2018-08-11T12:23:10.829Z,24.02
2018-08-11T12:25:40.274Z,23.81
2018-08-11T12:28:09.690Z,23.31
2018-08-11T12:30:39.463Z,23.32
2018-08-11T12:33:08.766Z,23.63
2018-08-11T12:35:39.199Z,23.95
2018-08-11T12:38:08.611Z,23.60
2018-08-11T12:40:38.027Z,23.77
2018-08-11T12:43:07.368Z,24.05
2018-08-11T12:45:36.816Z,24.47
2018-08-11T12:48:06.372Z,24.50
2018-08-11T12:50:35.840Z,24.49
2018-08-11T12:53:05.170Z,24.51
2018-08-11T12:55:34.473Z,24.41
2018-08-11T12:58:03.951Z,24.23
2018-08-11T13:00:33.397Z,24.30
2018-08-11T13:03:02.689Z,24.09
2018-08-11T13:05:35.218Z,24.12
2018-08-11T13:08:04.557Z,24.45
2018-08-11T13:10:34.280Z,24.23
2018-08-11T13:13:03.982Z,24.32
2018-08-11T13:15:33.579Z,24.04
2018-08-11T13:18:04.519Z,23.95
2018-08-11T13:20:33.959Z,23.76
2018-08-11T13:23:03.400Z,23.99
2018-08-11T13:25:34.090Z,24.00
2018-08-11T13:28:03.517Z,23.88
2018-08-11T13:30:33.162Z,23.99
2018-08-11T13:33:02.804Z,24.50
2018-08-11T13:35:32.424Z,24.65
2018-08-11T13:38:02.054Z,24.72
2018-08-11T13:40:32.146Z,24.23
2018-08-11T13:43:01.498Z,24.45
2018-08-11T13:45:30.680Z,24.42
2018-08-11T13:48:00.048Z,24.26
2018-08-11T13:50:29.593Z,24.49
2018-08-11T13:52:59.231Z,24.30
2018-08-11T13:55:28.630Z,24.22
2018-08-11T13:57:58.517Z,24.20
2018-08-11T14:00:27.892Z,24.09
2018-08-11T14:02:57.397Z,24.26
2018-08-11T14:05:26.678Z,24.28
2018-08-11T14:07:56.147Z,24.10
2018-08-11T14:10:26.142Z,23.69
2018-08-11T14:12:55.571Z,23.72
2018-08-11T14:15:25.790Z,23.65
2018-08-11T14:17:56.000Z,23.72
2018-08-11T14:20:25.393Z,23.83
2018-08-11T14:22:54.715Z,23.68
2018-08-11T14:25:24.139Z,23.91
2018-08-11T14:27:53.565Z,23.94
2018-08-11T14:30:22.933Z,23.56
2018-08-11T14:32:52.365Z,23.56
2018-08-11T14:35:22.302Z,23.57
2018-08-11T14:37:51.886Z,23.50
2018-08-11T14:40:21.472Z,23.46
2018-08-11T14:42:54.397Z,23.37
2018-08-11T14:45:25.002Z,23.73
2018-08-11T14:47:56.039Z,23.95
2018-08-11T14:50:25.454Z,24.11
2018-08-11T14:52:54.914Z,24.11
2018-08-11T14:55:24.211Z,24.19
2018-08-11T14:57:53.765Z,24.22
2018-08-11T15:00:24.231Z,24.22
2018-08-11T15:02:53.729Z,24.18
2018-08-11T15:05:23.292Z,24.14
2018-08-11T15:07:52.704Z,23.90
2018-08-11T15:10:22.366Z,23.96
2018-08-11T15:12:53.019Z,23.92
2018-08-11T15:15:23.014Z,23.68
2018-08-11T15:17:52.335Z,23.78
2018-08-11T15:20:21.882Z,23.72
2018-08-11T15:22:51.324Z,23.77
2018-08-11T15:25:22.478Z,23.85
2018-08-11T15:27:51.958Z,23.74
2018-08-11T15:30:22.391Z,23.54
2018-08-11T15:32:52.935Z,23.48
2018-08-11T15:35:22.246Z,23.59
2018-08-11T15:37:51.989Z,23.62
2018-08-11T15:40:22.560Z,23.60
2018-08-11T15:42:52.351Z,23.57
2018-08-11T15:45:21.815Z,23.68
2018-08-11T15:47:51.206Z,23.48
2018-08-11T15:50:20.599Z,23.49
2018-08-11T15:52:51.073Z,23.64
2018-08-11T15:55:21.087Z,23.44
2018-08-11T15:57:51.093Z,23.62
2018-08-11T16:00:20.623Z,23.90
2018-08-11T16:02:50.006Z,23.55
2018-08-11T16:05:19.528Z,23.58
2018-08-11T16:07:49.008Z,23.44
2018-08-11T16:10:18.366Z,23.33
2018-08-11T16:12:48.715Z,23.42
2018-08-11T16:15:17.971Z,23.40
2018-08-11T16:17:48.916Z,23.27
2018-08-11T16:20:18.995Z,23.32
2018-08-11T16:22:50.030Z,23.34
2018-08-11T16:25:19.845Z,23.20
2018-08-11T16:27:49.344Z,23.22
2018-08-11T16:30:19.105Z,23.19
2018-08-11T16:32:48.914Z,23.06
2018-08-11T16:35:18.317Z,23.10
2018-08-11T16:37:48.605Z,23.10
2018-08-11T16:40:17.980Z,23.08
2018-08-11T16:42:47.445Z,23.07
2018-08-11T16:45:17.252Z,23.18
2018-08-11T16:47:46.665Z,22.97
2018-08-11T16:50:16.128Z,22.78
2018-08-11T16:52:46.592Z,22.68
2018-08-11T16:55:16.088Z,22.57
2018-08-11T16:57:45.722Z,22.46
2018-08-11T17:00:16.086Z,22.48
2018-08-11T17:02:46.087Z,22.09
2018-08-11T17:05:15.583Z,22.28
2018-08-11T17:07:44.755Z,22.13
2018-08-11T17:10:13.934Z,22.03
2018-08-11T17:12:43.582Z,21.83
2018-08-11T17:15:13.308Z,21.75
2018-08-11T17:17:42.642Z,21.76
2018-08-11T17:20:11.939Z,21.67
2018-08-11T17:22:42.162Z,21.60
2018-08-11T17:25:11.648Z,21.46
2018-08-11T17:27:41.042Z,21.36
2018-08-11T17:30:24.295Z,21.27
2018-08-11T17:32:53.837Z,21.28
2018-08-11T17:35:24.588Z,21.14
2018-08-11T17:37:55.157Z,20.86
2018-08-11T17:40:24.836Z,20.77
2018-08-11T17:42:54.529Z,20.70
2018-08-11T17:45:24.035Z,20.56
2018-08-11T17:47:54.319Z,20.46
2018-08-11T17:50:24.928Z,20.53
2018-08-11T17:52:54.296Z,20.46
2018-08-11T17:55:23.792Z,20.45
2018-08-11T17:57:53.418Z,20.31
2018-08-11T18:00:22.959Z,20.18
2018-08-11T18:02:52.538Z,20.17
2018-08-11T18:08:12.404Z,20.02
2018-08-11T18:10:42.053Z,19.94
2018-08-11T18:13:13.922Z,19.90
2018-08-11T18:15:44.194Z,19.78
2018-08-11T18:18:13.860Z,19.66
2018-08-11T18:20:42.970Z,19.67
2018-08-11T18:23:13.611Z,19.55
2018-08-11T18:25:43.335Z,19.56
2018-08-11T18:28:12.742Z,19.46
2018-08-11T18:30:42.622Z,19.36
2018-08-11T18:33:11.936Z,19.43
2018-08-11T18:35:41.413Z,19.30
2018-08-11T18:38:11.132Z,19.25
2018-08-11T18:40:41.606Z,19.12
2018-08-11T18:43:15.454Z,19.19
2018-08-11T18:45:44.987Z,19.31
2018-08-11T18:48:14.925Z,19.17
2018-08-11T18:50:45.110Z,18.97
2018-08-11T18:53:14.855Z,19.09
2018-08-11T18:55:47.652Z,19.00
2018-08-11T18:58:18.433Z,18.87
2018-08-11T19:00:49.976Z,18.79
2018-08-11T19:03:19.444Z,18.78
2018-08-11T19:05:49.172Z,18.79
2018-08-11T19:08:18.857Z,18.68
2018-08-11T19:10:48.666Z,18.60
2018-08-11T19:13:19.028Z,18.58
2018-08-11T19:15:50.082Z,18.41
2018-08-11T19:18:20.410Z,18.46
2018-08-11T19:20:51.324Z,18.39
2018-08-11T19:23:21.039Z,18.39
2018-08-11T19:25:50.910Z,18.40
2018-08-11T19:28:20.774Z,18.27
2018-08-11T19:30:52.178Z,18.16
2018-08-11T19:33:22.657Z,18.09
2018-08-11T19:35:52.111Z,18.13
2018-08-11T19:38:21.647Z,18.11
2018-08-11T19:40:52.622Z,18.00
2018-08-11T19:43:22.190Z,18.07
2018-08-11T19:45:51.757Z,18.19
2018-08-11T19:48:21.502Z,18.01
2018-08-11T19:50:51.010Z,18.01
2018-08-11T19:53:20.877Z,17.99
2018-08-11T19:55:53.014Z,18.00
2018-08-11T19:58:22.368Z,18.05
2018-08-11T20:00:52.176Z,18.00
2018-08-11T20:03:21.510Z,17.97
2018-08-11T20:05:51.286Z,17.92
2018-08-11T20:08:21.080Z,17.75
2018-08-11T20:10:50.986Z,17.69
2018-08-11T20:13:20.378Z,17.64
2018-08-11T20:15:49.877Z,17.57
2018-08-11T20:18:20.164Z,17.45
2018-08-11T20:20:50.412Z,17.43
2018-08-11T20:23:20.555Z,17.43
2018-08-11T20:25:50.617Z,17.44
2018-08-11T20:28:20.242Z,17.15
2018-08-11T20:30:50.628Z,17.30
2018-08-11T20:33:20.195Z,17.25
2018-08-11T20:35:49.779Z,17.14
2018-08-11T20:38:19.810Z,17.12
2018-08-11T20:40:49.391Z,17.20
2018-08-11T20:43:18.818Z,17.14
2018-08-11T20:45:49.794Z,17.05
2018-08-11T20:48:19.375Z,16.99
2018-08-11T20:50:49.372Z,16.92
2018-08-11T20:53:18.875Z,16.89
2018-08-11T20:55:48.980Z,17.12
2018-08-11T20:58:18.697Z,16.93
2018-08-11T21:00:48.121Z,16.87
2018-08-11T21:03:17.489Z,16.89
2018-08-11T21:05:46.988Z,16.89
2018-08-11T21:08:17.931Z,16.84
2018-08-11T21:10:48.139Z,16.74
2018-08-11T21:13:18.910Z,16.73
2018-08-11T21:15:48.904Z,16.56
2018-08-11T21:18:18.765Z,16.65
2018-08-11T21:20:48.265Z,16.60
2018-08-11T21:23:18.339Z,16.64
2018-08-11T21:25:47.758Z,16.64
2018-08-11T21:28:17.360Z,16.55
2018-08-11T21:30:46.980Z,16.55
2018-08-11T21:33:16.708Z,16.43
2018-08-11T21:35:46.207Z,16.38
2018-08-11T21:38:15.736Z,16.34
2018-08-11T21:40:45.248Z,16.30
2018-08-11T21:43:14.707Z,16.23
2018-08-11T21:45:44.038Z,16.24
2018-08-11T21:48:14.073Z,16.23
2018-08-11T21:50:44.236Z,16.07
2018-08-11T21:53:17.702Z,15.98
2018-08-11T21:55:47.152Z,15.99
2018-08-11T21:58:16.894Z,15.93
2018-08-11T22:00:51.421Z,16.03
2018-08-11T22:03:20.845Z,16.01
2018-08-11T22:05:51.124Z,15.93
2018-08-11T22:08:20.603Z,15.94
2018-08-11T22:10:51.261Z,15.97
2018-08-11T22:13:20.789Z,15.87
2018-08-11T22:15:50.429Z,15.82
2018-08-11T22:18:19.797Z,15.88
2018-08-11T22:20:49.255Z,15.82
2018-08-11T22:23:18.706Z,15.71
2018-08-11T22:25:48.174Z,15.71
2018-08-11T22:28:17.473Z,15.69
2018-08-11T22:30:47.655Z,15.63
2018-08-11T22:33:17.034Z,15.51
2018-08-11T22:35:46.552Z,15.50
2018-08-11T22:38:16.103Z,15.53
2018-08-11T22:40:45.591Z,15.52
2018-08-11T22:43:15.912Z,15.43
2018-08-11T22:45:45.280Z,15.42
2018-08-11T22:48:15.628Z,15.43
2018-08-11T22:50:44.887Z,15.35
2018-08-11T22:53:15.186Z,15.34
2018-08-11T22:55:44.548Z,15.30
2018-08-11T22:58:14.454Z,15.12
2018-08-11T23:00:43.941Z,15.11
2018-08-11T23:03:14.366Z,15.10
2018-08-11T23:05:43.477Z,15.17
2018-08-11T23:08:12.926Z,15.13
2018-08-11T23:10:43.553Z,15.13
2018-08-11T23:13:12.893Z,15.20
2018-08-11T23:15:42.448Z,15.23
2018-08-11T23:18:12.145Z,15.21
2018-08-11T23:20:44.068Z,15.33
2018-08-11T23:23:13.616Z,15.34
2018-08-11T23:25:42.949Z,15.28
2018-08-11T23:28:13.843Z,15.30
2018-08-11T23:30:43.423Z,15.24
2018-08-11T23:33:13.224Z,15.43
2018-08-11T23:35:43.799Z,15.39
2018-08-11T23:38:13.179Z,15.34
2018-08-11T23:40:42.525Z,15.22
2018-08-11T23:43:11.992Z,15.37
2018-08-11T23:45:41.451Z,15.37
2018-08-11T23:48:11.603Z,15.41
2018-08-11T23:50:41.276Z,15.48
2018-08-11T23:53:10.976Z,15.52
2018-08-11T23:55:41.528Z,15.43
2018-08-11T23:58:11.566Z,15.39
